Time;durP1;ratioP1;P1;durP2;ratioP2;P2;SDS_P1;SDS_P2;PMS_P1;PMS_P2;Temp;Humidity;BMP_temperature;BMP_pressure;BME280_temperature;BME280_humidity;BME280_pressure;Samples;Min_cycle;Max_cycle;Signal;HPM_P1;HPM_P2
2023/07/01 00:01:22;;;;;;;4.43;2.13;;;20.90;81.60;;;;;;4883739;29;20039;-95
2023/07/01 00:03:51;;;;;;;4.35;1.80;;;20.90;81.70;;;;;;4881787;29;20092;-95
2023/07/01 00:06:19;;;;;;;2.88;1.98;;;20.90;81.50;;;;;;4864928;29;20033;-96
2023/07/01 00:08:50;;;;;;;3.17;1.70;;;20.90;81.20;;;;;;4865438;29;20364;-96
2023/07/01 00:11:24;;;;;;;3.38;1.73;;;20.80;80.90;;;;;;4865701;29;20053;-96
2023/07/01 00:13:49;;;;;;;3.60;1.90;;;20.80;80.70;;;;;;4850423;29;20052;-96
2023/07/01 00:16:17;;;;;;;3.17;1.80;;;20.80;80.70;;;;;;4866510;29;20092;-96
2023/07/01 00:18:46;;;;;;;3.33;1.60;;;20.80;80.40;;;;;;4851789;29;20080;-96
2023/07/01 00:21:21;;;;;;;2.97;1.80;;;20.80;80.00;;;;;;4867744;29;20036;-96
2023/07/01 00:23:50;;;;;;;3.58;1.65;;;20.80;79.90;;;;;;4869317;29;20033;-96
2023/07/01 00:26:16;;;;;;;4.10;1.77;;;20.80;79.80;;;;;;4885410;29;20026;-96
2023/07/01 00:28:47;;;;;;;2.55;1.67;;;20.70;79.60;;;;;;4872723;29;20036;-96
2023/07/01 00:31:20;;;;;;;;;;;20.70;79.60;;;;;;4878839;29;20041;-96
2023/07/01 00:33:49;;;;;;;2.35;1.70;;;20.70;79.60;;;;;;4873947;29;19908;-96
2023/07/01 00:36:14;;;;;;;2.95;1.50;;;20.70;79.70;;;;;;4889262;29;20113;-96
2023/07/01 00:38:43;;;;;;;4.13;1.75;;;20.70;79.60;;;;;;4891544;29;20061;-96
2023/07/01 00:41:14;;;;;;;3.78;2.00;;;20.70;79.20;;;;;;4879264;29;20033;-94
2023/07/01 00:43:40;;;;;;;3.00;1.60;;;20.70;79.30;;;;;;4895779;29;20048;-94
2023/07/01 00:46:09;;;;;;;2.53;1.52;;;20.70;79.10;;;;;;4901741;29;20016;-96
2023/07/01 00:48:45;;;;;;;3.22;1.75;;;20.70;79.00;;;;;;4904583;29;20074;-95
2023/07/01 00:51:13;;;;;;;4.10;1.77;;;20.70;79.00;;;;;;4917889;29;20093;-96
2023/07/01 00:53:42;;;;;;;3.58;1.75;;;20.70;79.10;;;;;;4878827;29;20037;-95
2023/07/01 00:56:08;;;;;;;5.10;1.88;;;20.70;78.80;;;;;;4842138;29;20037;-86
2023/07/01 00:58:34;;;;;;;4.20;1.75;;;20.60;78.60;;;;;;4866355;29;20037;-88
2023/07/01 01:01:07;;;;;;;3.20;1.50;;;20.70;78.60;;;;;;4864098;29;20105;-87
2023/07/01 01:04:00;;;;;;;2.50;1.65;;;20.60;78.40;;;;;;4864264;29;20030;-89
2023/07/01 01:06:36;;;;;;;2.88;1.63;;;20.60;78.40;;;;;;4863907;29;20026;-87
2023/07/01 01:09:14;;;;;;;4.00;1.52;;;20.60;78.20;;;;;;4848272;29;20048;-88
2023/07/01 01:11:45;;;;;;;2.35;1.65;;;20.60;78.30;;;;;;4848218;29;20030;-87
2023/07/01 01:14:11;;;;;;;;;;;20.60;78.30;;;;;;4848486;29;20030;-88
2023/07/01 01:16:42;;;;;;;4.72;2.00;;;20.60;78.30;;;;;;4863185;29;20270;-88
2023/07/01 01:19:33;;;;;;;5.15;1.70;;;20.50;78.30;;;;;;4848465;29;20043;-88
2023/07/01 01:22:08;;;;;;;;;;;20.50;78.40;;;;;;4864665;29;20112;-88
2023/07/01 01:24:37;;;;;;;3.65;1.42;;;20.50;78.50;;;;;;4863345;29;19908;-87
2023/07/01 01:27:05;;;;;;;3.67;1.50;;;20.50;78.60;;;;;;4863316;29;20070;-88
2023/07/01 01:29:31;;;;;;;3.10;2.20;;;20.50;78.80;;;;;;4847864;29;20030;-87
2023/07/01 01:31:57;;;;;;;3.80;1.60;;;20.50;78.90;;;;;;4863942;29;20074;-87
2023/07/01 01:34:23;;;;;;;3.20;2.00;;;20.50;78.90;;;;;;4847595;29;20026;-87
2023/07/01 01:36:54;;;;;;;4.20;1.95;;;20.50;78.80;;;;;;4862719;29;20072;-87
2023/07/01 01:39:29;;;;;;;5.15;1.70;;;20.50;78.80;;;;;;4864159;29;20475;-87
2023/07/01 01:41:57;;;;;;;2.75;1.75;;;20.50;79.00;;;;;;4847181;29;20121;-86
2023/07/01 01:44:30;;;;;;;4.80;1.90;;;20.50;79.10;;;;;;4863105;29;20034;-87
2023/07/01 01:46:57;;;;;;;3.42;1.95;;;20.50;79.10;;;;;;4863956;29;20412;-86
2023/07/01 01:49:23;;;;;;;3.22;1.65;;;20.50;79.20;;;;;;4863514;29;20121;-87
2023/07/01 01:51:49;;;;;;;3.67;1.83;;;20.50;79.30;;;;;;4847122;29;20108;-88
2023/07/01 01:54:15;;;;;;;3.35;1.55;;;20.50;79.40;;;;;;4847607;29;20037;-88
2023/07/01 01:56:41;;;;;;;4.85;1.73;;;20.50;79.50;;;;;;4847359;29;20072;-87
2023/07/01 01:59:09;;;;;;;3.63;1.63;;;20.50;79.60;;;;;;4862423;29;20033;-87
2023/07/01 02:01:35;;;;;;;2.90;1.48;;;20.50;79.60;;;;;;4847175;29;20042;-87
2023/07/01 02:04:01;;;;;;;3.15;1.42;;;20.50;79.50;;;;;;4846963;29;20376;-87
2023/07/01 02:06:27;;;;;;;7.25;1.85;;;20.50;79.60;;;;;;4846743;29;20026;-86
2023/07/01 02:08:52;;;;;;;2.95;1.65;;;20.50;79.70;;;;;;4861861;29;20038;-87
2023/07/01 02:11:18;;;;;;;3.35;1.70;;;20.50;79.80;;;;;;4861676;29;20061;-87
2023/07/01 02:13:44;;;;;;;4.13;1.70;;;20.50;80.00;;;;;;4846995;29;20065;-87
2023/07/01 02:16:09;;;;;;;3.65;1.70;;;20.50;80.10;;;;;;4846840;29;20026;-88
2023/07/01 02:18:35;;;;;;;3.67;1.67;;;20.40;80.30;;;;;;4862274;29;20121;-88
2023/07/01 02:21:04;;;;;;;3.33;1.80;;;20.50;80.60;;;;;;4862066;29;20033;-88
2023/07/01 02:23:29;;;;;;;3.50;1.77;;;20.40;80.80;;;;;;4862163;29;20026;-88
2023/07/01 02:25:55;;;;;;;2.20;1.80;;;20.40;81.00;;;;;;4846927;29;20359;-88
2023/07/01 02:28:21;;;;;;;3.47;1.80;;;20.40;81.20;;;;;;4863229;29;20037;-88
2023/07/01 02:30:47;;;;;;;3.22;1.77;;;20.40;81.40;;;;;;4863457;29;20017;-87
2023/07/01 02:33:12;;;;;;;5.07;2.25;;;20.40;81.50;;;;;;4861977;29;20030;-88
2023/07/01 02:35:38;;;;;;;3.50;1.48;;;20.40;81.60;;;;;;4861547;29;20030;-87
2023/07/01 02:38:03;;;;;;;5.68;1.90;;;20.40;81.80;;;;;;4862740;29;20021;-88
2023/07/01 02:40:29;;;;;;;2.85;1.52;;;20.40;82.10;;;;;;4863922;29;20404;-88
2023/07/01 02:42:55;;;;;;;2.88;1.60;;;20.30;82.30;;;;;;4865262;29;20014;-86
2023/07/01 02:45:22;;;;;;;6.95;1.77;;;20.40;82.70;;;;;;4884853;29;20049;-87
2023/07/01 02:47:47;;;;;;;3.58;1.80;;;20.30;83.10;;;;;;4885154;29;20028;-86
2023/07/01 02:50:13;;;;;;;3.88;1.67;;;20.30;83.60;;;;;;4885109;29;20030;-87
2023/07/01 02:52:39;;;;;;;2.65;1.58;;;20.20;83.90;;;;;;4882482;29;20089;-87
2023/07/01 02:55:07;;;;;;;3.40;1.70;;;20.20;84.20;;;;;;4863327;29;20066;-87
2023/07/01 02:57:36;;;;;;;4.65;1.50;;;20.20;84.40;;;;;;4861838;29;20030;-88
2023/07/01 03:00:02;;;;;;;2.53;1.55;;;20.20;84.90;;;;;;4862497;29;20433;-87
2023/07/01 03:02:28;;;;;;;1.83;1.27;;;20.20;85.20;;;;;;4845766;29;20033;-87
2023/07/01 03:04:56;;;;;;;2.20;1.42;;;20.10;85.40;;;;;;4846064;29;20037;-88
2023/07/01 03:07:21;;;;;;;2.40;1.52;;;20.10;85.80;;;;;;4862463;29;20081;-87
2023/07/01 03:09:50;;;;;;;3.13;1.70;;;20.00;85.90;;;;;;4861206;29;20049;-88
2023/07/01 03:12:16;;;;;;;2.47;1.50;;;20.00;86.00;;;;;;4861863;29;20030;-87
2023/07/01 03:14:42;;;;;;;2.00;1.50;;;20.00;86.10;;;;;;4861039;29;20029;-88
2023/07/01 03:17:08;;;;;;;3.22;1.40;;;20.10;86.20;;;;;;4845792;29;20128;-88
2023/07/01 03:19:34;;;;;;;2.30;1.50;;;20.10;86.30;;;;;;4861163;29;20120;-87
2023/07/01 03:22:00;;;;;;;3.25;1.80;;;20.00;86.50;;;;;;4861299;29;20085;-87
2023/07/01 03:24:33;;;;;;;3.70;1.50;;;20.00;87.30;;;;;;4862123;29;20041;-87
2023/07/01 03:27:01;;;;;;;3.08;1.55;;;19.90;88.00;;;;;;4860581;29;20022;-88
2023/07/01 03:29:26;;;;;;;3.67;1.60;;;19.90;88.60;;;;;;4845217;29;20174;-88
2023/07/01 03:31:54;;;;;;;4.97;1.75;;;19.80;89.50;;;;;;4845639;29;20535;-87
2023/07/01 03:34:22;;;;;;;3.63;1.75;;;19.80;89.10;;;;;;4861609;29;20117;-87
2023/07/01 03:36:48;;;;;;;4.70;1.52;;;19.80;89.60;;;;;;4861928;29;20055;-87
2023/07/01 03:39:16;;;;;;;4.75;1.55;;;19.80;90.00;;;;;;4861746;29;20502;-87
2023/07/01 03:41:42;;;;;;;3.38;1.63;;;19.80;90.10;;;;;;4845250;29;20041;-88
2023/07/01 03:44:07;;;;;;;2.45;1.65;;;19.80;90.20;;;;;;4860465;29;20029;-87
2023/07/01 03:46:33;;;;;;;4.50;1.98;;;19.80;90.30;;;;;;4861786;29;20037;-87
2023/07/01 03:49:02;;;;;;;2.50;1.55;;;19.80;90.40;;;;;;4860327;29;20033;-85
2023/07/01 03:51:29;;;;;;;4.50;1.50;;;19.80;90.50;;;;;;4861619;29;20050;-87
2023/07/01 03:53:55;;;;;;;3.60;1.95;;;19.80;90.50;;;;;;4861895;29;20021;-87
2023/07/01 03:56:25;;;;;;;2.05;1.63;;;19.80;90.60;;;;;;4861758;29;20082;-87
2023/07/01 03:58:51;;;;;;;2.17;1.58;;;19.80;90.60;;;;;;4860295;29;20026;-87
2023/07/01 04:01:17;;;;;;;2.88;1.60;;;19.80;90.60;;;;;;4860373;29;20391;-87
2023/07/01 04:03:44;;;;;;;2.50;1.60;;;19.80;90.60;;;;;;4860166;29;20050;-87
2023/07/01 04:06:09;;;;;;;4.65;1.80;;;19.80;90.70;;;;;;4844537;29;20147;-87
2023/07/01 04:08:35;;;;;;;1.88;1.50;;;19.80;90.70;;;;;;4844957;29;20069;-86
2023/07/01 04:11:01;;;;;;;3.95;2.03;;;19.80;90.70;;;;;;4844671;29;20416;-87
2023/07/01 04:13:30;;;;;;;3.83;1.65;;;19.80;90.80;;;;;;4844809;29;20124;-87
2023/07/01 04:15:56;;;;;;;4.03;1.63;;;19.80;90.90;;;;;;4861283;29;20029;-88
2023/07/01 04:18:22;;;;;;;2.97;1.35;;;19.80;90.90;;;;;;4845309;29;20733;-88
2023/07/01 04:20:48;;;;;;;2.50;1.55;;;19.80;90.90;;;;;;4860623;29;20452;-87
2023/07/01 04:23:13;;;;;;;2.67;1.65;;;19.80;91.00;;;;;;4860240;29;20033;-87
2023/07/01 04:25:40;;;;;;;2.30;1.48;;;19.80;91.10;;;;;;4845023;29;20042;-87
2023/07/01 04:28:08;;;;;;;2.65;1.50;;;19.80;91.30;;;;;;4861696;29;20029;-87
2023/07/01 04:30:33;;;;;;;2.53;1.63;;;19.80;91.50;;;;;;4845856;29;20026;-87
2023/07/01 04:32:59;;;;;;;2.50;1.60;;;19.80;91.70;;;;;;4860626;29;20037;-87
2023/07/01 04:35:25;;;;;;;2.97;1.40;;;19.70;91.80;;;;;;4862711;29;20105;-86
2023/07/01 04:37:50;;;;;;;1.58;1.40;;;19.70;92.00;;;;;;4855255;29;20111;-87
2023/07/01 04:40:16;;;;;;;1.52;1.35;;;19.60;92.10;;;;;;4882404;29;20029;-86
2023/07/01 04:42:53;;;;;;;2.58;1.40;;;19.60;92.20;;;;;;4883389;29;20034;-88
2023/07/01 04:45:19;;;;;;;2.88;1.20;;;19.60;92.30;;;;;;4884028;29;20089;-85
2023/07/01 04:47:45;;;;;;;2.80;1.20;;;19.60;92.40;;;;;;4868478;29;20021;-85
2023/07/01 04:50:11;;;;;;;1.73;1.27;;;19.70;92.50;;;;;;4883677;29;20034;-84
2023/07/01 04:52:36;;;;;;;1.45;1.15;;;19.60;92.70;;;;;;4876563;29;20036;-87
2023/07/01 04:55:03;;;;;;;1.48;1.20;;;19.60;92.70;;;;;;4860932;29;20083;-87
2023/07/01 04:57:28;;;;;;;1.50;1.40;;;19.60;92.90;;;;;;4860697;29;20029;-86
2023/07/01 04:59:54;;;;;;;2.28;1.27;;;19.60;93.00;;;;;;4859750;29;20052;-86
2023/07/01 05:02:23;;;;;;;2.47;1.58;;;19.50;93.10;;;;;;4859842;29;20125;-87
2023/07/01 05:04:51;;;;;;;2.67;1.30;;;19.50;93.50;;;;;;4844646;29;20377;-86
2023/07/01 05:07:16;;;;;;;1.95;1.30;;;19.40;93.50;;;;;;4860022;29;20102;-87
2023/07/01 05:09:42;;;;;;;1.83;1.10;;;19.40;93.60;;;;;;4859747;29;20504;-88
2023/07/01 05:12:10;;;;;;;1.98;1.27;;;19.40;93.70;;;;;;4844556;29;20029;-88
2023/07/01 05:14:36;;;;;;;1.60;1.20;;;19.40;93.80;;;;;;4859929;29;20026;-86
2023/07/01 05:17:05;;;;;;;2.38;1.00;;;19.40;93.90;;;;;;4847480;29;20036;-88
2023/07/01 05:19:33;;;;;;;2.22;1.02;;;19.30;94.00;;;;;;4863357;29;20033;-86
2023/07/01 05:21:59;;;;;;;1.40;1.27;;;19.40;94.10;;;;;;4848001;29;20490;-88
2023/07/01 05:24:27;;;;;;;2.13;1.23;;;19.40;94.10;;;;;;4862788;29;20026;-89
2023/07/01 05:26:53;;;;;;;1.60;1.27;;;19.40;94.20;;;;;;4862997;29;20025;-86
2023/07/01 05:29:24;;;;;;;1.15;0.82;;;19.40;94.20;;;;;;4862640;29;20121;-87
2023/07/01 05:31:50;;;;;;;3.20;1.30;;;19.50;94.30;;;;;;4847381;29;20033;-87
2023/07/01 05:34:16;;;;;;;1.42;1.33;;;19.40;94.30;;;;;;4847339;29;20029;-87
2023/07/01 05:36:42;;;;;;;2.45;1.30;;;19.40;94.40;;;;;;4863874;29;20030;-87
2023/07/01 05:39:09;;;;;;;2.40;1.52;;;19.40;94.50;;;;;;4862139;29;20046;-86
2023/07/01 05:41:38;;;;;;;1.50;1.20;;;19.40;94.50;;;;;;4847175;29;20064;-88
2023/07/01 05:44:03;;;;;;;2.47;1.20;;;19.40;94.60;;;;;;4863449;29;20430;-87
2023/07/01 05:46:29;;;;;;;1.58;1.23;;;19.40;94.70;;;;;;4862016;29;20041;-88
2023/07/01 05:48:55;;;;;;;2.15;1.15;;;19.40;94.70;;;;;;4862496;29;20037;-87
2023/07/01 05:51:21;;;;;;;2.60;1.20;;;19.40;94.80;;;;;;4846839;29;20465;-87
2023/07/01 05:53:47;;;;;;;1.30;1.20;;;19.40;94.80;;;;;;4863622;29;20025;-86
2023/07/01 05:56:16;;;;;;;1.13;1.02;;;19.40;94.90;;;;;;4846987;29;20524;-86
2023/07/01 05:58:41;;;;;;;0.98;0.90;;;19.40;94.90;;;;;;4846903;29;20038;-87
2023/07/01 06:01:08;;;;;;;1.20;1.10;;;19.40;95.00;;;;;;4862386;29;20444;-88
2023/07/01 06:03:33;;;;;;;1.35;1.10;;;19.40;95.00;;;;;;4862175;29;20025;-86
2023/07/01 06:05:59;;;;;;;2.20;1.17;;;19.40;95.10;;;;;;4862367;29;20029;-86
2023/07/01 06:08:25;;;;;;;1.10;1.00;;;19.40;95.20;;;;;;4846715;29;20037;-86
2023/07/01 06:10:51;;;;;;;1.80;1.20;;;19.40;95.20;;;;;;4831811;29;20415;-85
2023/07/01 06:13:20;;;;;;;1.85;1.25;;;19.40;95.40;;;;;;4828415;29;20026;-85
2023/07/01 06:15:45;;;;;;;1.08;1.00;;;19.30;95.40;;;;;;4844187;29;20034;-86
2023/07/01 06:18:11;;;;;;;1.95;1.27;;;19.30;95.50;;;;;;4844874;29;20029;-86
2023/07/01 06:20:37;;;;;;;2.15;1.27;;;19.40;95.60;;;;;;4828798;29;20187;-86
2023/07/01 06:23:08;;;;;;;1.02;0.88;;;19.40;95.50;;;;;;4829303;29;20033;-86
2023/07/01 06:25:36;;;;;;;2.00;1.35;;;19.40;95.60;;;;;;4831487;29;20030;-86
2023/07/01 06:28:02;;;;;;;1.60;1.20;;;19.40;95.60;;;;;;4834556;29;20042;-86
2023/07/01 06:30:27;;;;;;;1.48;1.10;;;19.40;95.60;;;;;;4834708;29;20032;-87
2023/07/01 06:32:55;;;;;;;1.17;1.05;;;19.40;95.70;;;;;;4851422;29;20047;-86
2023/07/01 06:35:21;;;;;;;2.17;1.10;;;19.40;95.70;;;;;;4866840;29;20038;-88
2023/07/01 06:37:47;;;;;;;1.10;0.95;;;19.50;95.70;;;;;;4847646;29;20057;-86
2023/07/01 06:40:12;;;;;;;1.15;1.00;;;19.50;95.70;;;;;;4851061;29;20055;-87
2023/07/01 06:42:41;;;;;;;2.20;1.10;;;19.50;95.70;;;;;;4844307;29;20038;-86
2023/07/01 06:45:10;;;;;;;1.33;1.20;;;19.50;95.80;;;;;;4828446;29;20472;-87
2023/07/01 06:47:35;;;;;;;0.95;0.80;;;19.50;95.80;;;;;;4828107;29;20124;-86
2023/07/01 06:50:01;;;;;;;1.10;1.00;;;19.50;95.90;;;;;;4828029;29;20057;-86
2023/07/01 06:52:56;;;;;;;0.98;0.73;;;19.50;95.80;;;;;;4827887;29;20030;-88
2023/07/01 06:55:22;;;;;;;1.42;1.13;;;19.60;95.90;;;;;;4827299;29;20107;-86
2023/07/01 06:57:48;;;;;;;1.20;1.10;;;19.50;95.90;;;;;;4844070;29;20503;-87
2023/07/01 07:00:14;;;;;;;0.93;0.80;;;19.50;95.90;;;;;;4827641;29;20044;-89
2023/07/01 07:02:40;;;;;;;1.30;1.17;;;19.50;95.90;;;;;;4827631;29;20171;-86
2023/07/01 07:05:08;;;;;;;1.88;1.05;;;19.60;96.00;;;;;;4827553;29;20026;-86
2023/07/01 07:07:34;;;;;;;1.80;0.90;;;19.60;96.00;;;;;;4827759;29;20030;-86
2023/07/01 07:10:03;;;;;;;1.30;0.93;;;19.60;96.10;;;;;;4827688;29;20050;-87
2023/07/01 07:12:29;;;;;;;0.80;0.80;;;19.60;96.10;;;;;;4827495;29;20147;-87
2023/07/01 07:14:54;;;;;;;0.93;0.93;;;19.60;96.10;;;;;;4842841;29;20494;-86
2023/07/01 07:17:20;;;;;;;1.05;0.95;;;19.60;96.20;;;;;;4827493;29;20036;-88
2023/07/01 07:19:46;;;;;;;1.70;1.00;;;19.60;96.10;;;;;;4827471;29;20034;-87
2023/07/01 07:22:11;;;;;;;0.90;0.82;;;19.60;96.10;;;;;;4843029;29;20042;-88
2023/07/01 07:24:38;;;;;;;2.00;1.23;;;19.60;96.20;;;;;;4827554;29;20125;-87
2023/07/01 07:27:05;;;;;;;1.30;1.00;;;19.70;96.20;;;;;;4827155;29;20032;-86
2023/07/01 07:29:33;;;;;;;1.13;0.90;;;19.70;96.20;;;;;;4827190;29;20112;-83
2023/07/01 07:31:59;;;;;;;1.70;1.10;;;19.70;96.20;;;;;;4842184;29;20030;-86
2023/07/01 07:34:25;;;;;;;1.13;0.80;;;19.70;96.20;;;;;;4842987;29;20069;-85
2023/07/01 07:36:52;;;;;;;1.55;1.10;;;19.70;96.20;;;;;;4842412;29;20057;-85
2023/07/01 07:39:18;;;;;;;2.05;1.02;;;19.80;96.20;;;;;;4826678;29;20483;-86
2023/07/01 07:41:44;;;;;;;0.82;0.82;;;19.80;96.20;;;;;;4827038;29;20117;-84
2023/07/01 07:44:10;;;;;;;0.65;0.65;;;19.80;96.30;;;;;;4826493;29;20034;-85
2023/07/01 07:46:38;;;;;;;2.40;1.13;;;19.80;96.30;;;;;;4826927;29;20026;-83
2023/07/01 07:49:04;;;;;;;0.82;0.80;;;19.80;96.30;;;;;;4826867;29;20026;-84
2023/07/01 07:51:30;;;;;;;0.80;0.80;;;19.80;96.30;;;;;;4826911;29;20030;-85
2023/07/01 07:53:55;;;;;;;1.67;0.70;;;19.80;96.30;;;;;;4842902;29;20026;-83
2023/07/01 07:56:24;;;;;;;0.63;0.63;;;19.90;96.40;;;;;;4842157;29;20065;-85
2023/07/01 07:58:49;;;;;;;1.52;0.70;;;19.90;96.40;;;;;;4841846;29;20089;-83
2023/07/01 08:01:15;;;;;;;1.02;0.90;;;19.90;96.40;;;;;;4842044;29;20088;-85
2023/07/01 08:03:41;;;;;;;0.77;0.77;;;19.90;96.40;;;;;;4841875;29;20373;-84
2023/07/01 08:06:07;;;;;;;2.05;0.90;;;19.90;96.40;;;;;;4842824;29;20503;-85
2023/07/01 08:08:35;;;;;;;2.03;0.90;;;19.90;96.50;;;;;;4842993;29;20533;-85
2023/07/01 08:11:01;;;;;;;1.15;0.93;;;19.90;96.70;;;;;;4826589;29;20045;-85
2023/07/01 08:13:26;;;;;;;1.45;1.30;;;19.90;96.50;;;;;;4826575;29;20033;-85
2023/07/01 08:15:52;;;;;;;0.90;0.90;;;19.90;96.60;;;;;;4842968;29;20077;-85
2023/07/01 08:18:18;;;;;;;1.17;1.02;;;19.90;96.70;;;;;;4843082;29;20037;-85
2023/07/01 08:20:45;;;;;;;1.33;1.10;;;19.90;96.70;;;;;;4826885;29;20061;-84
2023/07/01 08:23:11;;;;;;;1.60;1.00;;;19.90;96.80;;;;;;4827240;29;20037;-85
2023/07/01 08:25:40;;;;;;;1.35;1.20;;;20.00;96.90;;;;;;4829459;29;20034;-84
2023/07/01 08:28:06;;;;;;;0.98;0.98;;;20.00;96.90;;;;;;4865752;29;20014;-85
2023/07/01 08:30:32;;;;;;;0.88;0.88;;;19.90;97.10;;;;;;4865150;29;20018;-83
2023/07/01 08:32:57;;;;;;;1.25;1.02;;;20.00;97.40;;;;;;4865542;29;20045;-84
2023/07/01 08:35:23;;;;;;;1.33;1.23;;;20.00;97.20;;;;;;4865104;29;20014;-86
2023/07/01 08:37:49;;;;;;;1.30;1.17;;;20.00;97.30;;;;;;4865540;29;20078;-84
2023/07/01 08:40:15;;;;;;;1.00;0.90;;;20.10;97.40;;;;;;4859682;29;20048;-85
2023/07/01 08:42:48;;;;;;;0.90;0.90;;;20.10;97.40;;;;;;4841797;29;20042;-85
2023/07/01 08:45:14;;;;;;;1.30;1.05;;;20.10;97.50;;;;;;4843202;29;20473;-85
2023/07/01 08:47:40;;;;;;;1.10;1.00;;;20.10;97.50;;;;;;4826866;29;20125;-85
2023/07/01 08:50:07;;;;;;;1.15;1.08;;;20.10;97.60;;;;;;4826636;29;20038;-85
2023/07/01 08:52:42;;;;;;;1.10;1.00;;;20.10;97.60;;;;;;4829719;29;20061;-85
2023/07/01 08:55:12;;;;;;;1.10;1.00;;;20.10;97.70;;;;;;4846453;29;20113;-86
2023/07/01 08:57:41;;;;;;;1.00;1.00;;;20.10;97.70;;;;;;4846291;29;20055;-85
2023/07/01 09:00:09;;;;;;;0.88;0.85;;;20.10;97.80;;;;;;4829749;29;20030;-85
2023/07/01 09:02:36;;;;;;;1.23;0.80;;;20.10;97.80;;;;;;4845329;29;20385;-86
2023/07/01 09:05:03;;;;;;;1.08;0.90;;;20.10;97.90;;;;;;4829540;29;20033;-85
2023/07/01 09:07:29;;;;;;;1.00;1.00;;;20.20;97.90;;;;;;4846034;29;20069;-85
2023/07/01 09:09:59;;;;;;;1.70;1.17;;;20.30;98.00;;;;;;4828815;29;20093;-85
2023/07/01 09:12:29;;;;;;;1.40;1.10;;;20.30;98.00;;;;;;4844717;29;20091;-86
2023/07/01 09:15:06;;;;;;;1.00;0.80;;;20.40;98.10;;;;;;4829081;29;20527;-87
2023/07/01 09:17:37;;;;;;;1.00;1.00;;;20.40;98.10;;;;;;4844674;29;20465;-86
2023/07/01 09:20:07;;;;;;;1.25;1.15;;;20.50;98.10;;;;;;4844198;29;20041;-87
2023/07/01 09:22:35;;;;;;;0.75;0.75;;;20.50;98.20;;;;;;4828713;29;20029;-86
2023/07/01 09:25:01;;;;;;;1.40;1.08;;;20.50;98.20;;;;;;4829163;29;20058;-86
2023/07/01 09:27:46;;;;;;;2.35;1.20;;;20.50;98.40;;;;;;4844522;29;20061;-86
2023/07/01 09:30:24;;;;;;;1.30;1.00;;;20.50;98.40;;;;;;4845427;29;20506;-86
2023/07/01 09:32:50;;;;;;;1.40;0.98;;;20.50;98.50;;;;;;4845791;29;20349;-87
2023/07/01 09:35:16;;;;;;;1.00;1.00;;;20.50;98.50;;;;;;4828627;29;20045;-87
2023/07/01 09:37:42;;;;;;;0.80;0.80;;;20.50;98.50;;;;;;4828962;29;20044;-87
2023/07/01 09:40:24;;;;;;;1.30;1.20;;;20.60;98.60;;;;;;4829002;29;20473;-86
2023/07/01 09:42:55;;;;;;;1.00;0.88;;;20.60;98.60;;;;;;4845474;29;20420;-87
2023/07/01 09:45:21;;;;;;;1.00;1.00;;;20.60;98.60;;;;;;4828853;29;20388;-86
2023/07/01 09:47:52;;;;;;;1.23;1.17;;;20.60;98.70;;;;;;4828609;29;20074;-87
2023/07/01 09:50:29;;;;;;;1.00;1.00;;;20.60;98.70;;;;;;4845188;29;20078;-86
2023/07/01 09:52:55;;;;;;;1.02;1.02;;;20.60;98.70;;;;;;4844099;29;20050;-86
2023/07/01 09:55:22;;;;;;;1.65;1.13;;;20.50;98.70;;;;;;4828802;29;20034;-86
2023/07/01 09:57:48;;;;;;;1.42;1.17;;;20.50;98.80;;;;;;4844787;29;20029;-88
2023/07/01 10:00:17;;;;;;;1.75;1.48;;;20.50;98.80;;;;;;4844660;29;20038;-87
2023/07/01 10:02:45;;;;;;;1.60;1.50;;;20.50;98.80;;;;;;4843645;29;20044;-87
2023/07/01 10:05:12;;;;;;;1.40;1.27;;;20.60;98.90;;;;;;4828271;29;20415;-86
2023/07/01 10:07:39;;;;;;;2.08;1.50;;;20.60;99.00;;;;;;4828499;29;20034;-86
2023/07/01 10:10:10;;;;;;;1.25;1.17;;;20.60;99.00;;;;;;4845159;29;20088;-87
2023/07/01 10:12:38;;;;;;;1.27;1.17;;;20.60;99.00;;;;;;4844085;29;20099;-87
2023/07/01 10:15:08;;;;;;;1.40;1.30;;;20.70;99.10;;;;;;4828708;29;20041;-87
2023/07/01 10:17:48;;;;;;;1.30;1.20;;;20.60;99.10;;;;;;4847318;29;20086;-87
2023/07/01 10:20:31;;;;;;;1.55;1.45;;;20.70;99.10;;;;;;4865963;29;20137;-86
2023/07/01 10:22:59;;;;;;;1.40;1.30;;;20.70;99.10;;;;;;4866965;29;20039;-86
2023/07/01 10:25:35;;;;;;;1.20;1.20;;;20.70;99.10;;;;;;4851795;29;20022;-87
2023/07/01 10:28:01;;;;;;;1.30;1.17;;;20.70;99.10;;;;;;4865279;29;20059;-86
2023/07/01 10:30:44;;;;;;;1.50;1.20;;;20.70;99.10;;;;;;4848945;29;20030;-87
2023/07/01 10:33:35;;;;;;;1.27;1.17;;;20.70;99.10;;;;;;4845126;29;20093;-86
2023/07/01 10:36:04;;;;;;;;;;;20.70;99.20;;;;;;4829851;29;20032;-87
2023/07/01 10:38:31;;;;;;;1.75;1.25;;;20.70;99.10;;;;;;4844775;29;19912;-87
2023/07/01 10:40:57;;;;;;;3.05;1.80;;;20.70;99.20;;;;;;4844416;29;20034;-85
2023/07/01 10:43:38;;;;;;;1.42;1.33;;;20.80;99.30;;;;;;4828492;29;20559;-86
2023/07/01 10:46:13;;;;;;;2.50;1.48;;;20.70;99.30;;;;;;4827715;29;20520;-86
2023/07/01 10:48:57;;;;;;;1.83;1.70;;;20.70;99.30;;;;;;4844656;29;20041;-87
2023/07/01 10:51:23;;;;;;;1.70;1.52;;;20.70;99.40;;;;;;4827815;29;20030;-87
2023/07/01 10:54:00;;;;;;;1.70;1.60;;;20.80;99.40;;;;;;4827477;29;20113;-84
2023/07/01 10:56:33;;;;;;;2.20;2.00;;;20.70;99.50;;;;;;4844543;29;20037;-86
2023/07/01 10:59:17;;;;;;;2.15;1.95;;;20.70;99.60;;;;;;4828013;29;20033;-86
2023/07/01 11:01:47;;;;;;;3.33;2.10;;;20.70;99.60;;;;;;4844126;29;20082;-86
2023/07/01 11:04:13;;;;;;;2.45;2.25;;;20.80;99.60;;;;;;4827720;29;20042;-86
2023/07/01 11:06:49;;;;;;;2.78;2.00;;;20.80;99.60;;;;;;4827644;29;20033;-86
2023/07/01 11:09:16;;;;;;;1.73;1.63;;;20.80;99.70;;;;;;4844081;29;20073;-87
2023/07/01 11:11:42;;;;;;;2.03;1.80;;;20.90;99.70;;;;;;4861238;29;20064;-85
2023/07/01 11:14:10;;;;;;;1.90;1.80;;;21.00;99.80;;;;;;4844948;29;20100;-86
2023/07/01 11:16:38;;;;;;;2.10;1.90;;;21.00;99.80;;;;;;4862230;29;20068;-87
2023/07/01 11:19:08;;;;;;;2.50;2.22;;;21.10;99.80;;;;;;4862197;29;20033;-87
2023/07/01 11:21:34;;;;;;;2.70;2.50;;;21.10;99.80;;;;;;4845640;29;20032;-86
2023/07/01 11:24:04;;;;;;;3.08;2.53;;;21.20;99.80;;;;;;4860698;29;20037;-86
2023/07/01 11:26:40;;;;;;;2.88;2.30;;;21.20;99.80;;;;;;4845569;29;20030;-86
2023/07/01 11:29:18;;;;;;;2.70;2.50;;;21.20;99.80;;;;;;4845405;29;20033;-87
2023/07/01 11:31:55;;;;;;;2.42;2.22;;;21.30;99.70;;;;;;4845346;29;20026;-86
2023/07/01 11:34:21;;;;;;;2.40;2.20;;;21.30;99.70;;;;;;4861877;29;20025;-87
2023/07/01 11:36:48;;;;;;;2.50;2.30;;;21.30;99.70;;;;;;4845294;29;20029;-86
2023/07/01 11:39:16;;;;;;;2.65;2.45;;;21.30;99.70;;;;;;4860462;29;20084;-86
2023/07/01 11:41:44;;;;;;;3.38;2.75;;;21.40;99.70;;;;;;4845192;29;20088;-86
2023/07/01 11:44:12;;;;;;;2.70;2.50;;;21.50;99.70;;;;;;4844901;29;20041;-86
2023/07/01 11:46:40;;;;;;;2.83;2.63;;;21.60;99.70;;;;;;4844958;29;20026;-86
2023/07/01 11:49:35;;;;;;;3.55;2.97;;;21.60;99.60;;;;;;4844966;29;20045;-87
2023/07/01 11:52:06;;;;;;;3.03;2.50;;;21.70;99.60;;;;;;4836548;29;20065;-86
2023/07/01 11:54:48;;;;;;;3.88;2.50;;;21.70;99.60;;;;;;4860529;29;20029;-86
2023/07/01 11:57:14;;;;;;;2.70;2.50;;;21.70;99.60;;;;;;4860011;29;20029;-86
2023/07/01 11:59:48;;;;;;;2.75;2.55;;;21.70;99.60;;;;;;4861572;29;20089;-85
2023/07/01 12:02:15;;;;;;;2.63;2.15;;;21.70;99.50;;;;;;4845288;29;20502;-86
2023/07/01 12:04:40;;;;;;;2.85;2.58;;;21.80;99.50;;;;;;4860408;29;20037;-86
2023/07/01 12:07:15;;;;;;;2.58;2.38;;;21.80;99.40;;;;;;4860875;29;20034;-87
2023/07/01 12:09:44;;;;;;;2.53;2.17;;;21.80;99.30;;;;;;4845606;29;20487;-87
2023/07/01 12:12:18;;;;;;;3.10;2.67;;;21.80;99.30;;;;;;4846703;29;20046;-86
2023/07/01 12:14:45;;;;;;;2.67;2.47;;;21.70;99.30;;;;;;4852041;29;20510;-87
2023/07/01 12:17:25;;;;;;;2.72;2.53;;;21.80;99.40;;;;;;4875127;29;20034;-85
2023/07/01 12:19:51;;;;;;;3.40;2.65;;;21.80;99.40;;;;;;4866460;29;20006;-86
2023/07/01 12:22:17;;;;;;;3.00;2.80;;;21.80;99.30;;;;;;4867967;29;20033;-86
2023/07/01 12:24:43;;;;;;;2.65;2.45;;;21.80;99.30;;;;;;4884876;29;20018;-86
2023/07/01 12:27:08;;;;;;;3.20;2.90;;;21.80;99.30;;;;;;4879582;29;20041;-88
2023/07/01 12:29:34;;;;;;;2.53;2.33;;;21.80;99.40;;;;;;4875332;29;20537;-87
2023/07/01 12:32:00;;;;;;;2.30;2.10;;;21.70;99.50;;;;;;4869110;29;20387;-85
2023/07/01 12:34:26;;;;;;;2.13;1.92;;;21.70;99.70;;;;;;4864621;29;20029;-87
2023/07/01 12:36:55;;;;;;;2.20;2.00;;;21.70;99.70;;;;;;4848926;29;20070;-87
2023/07/01 12:39:25;;;;;;;1.90;1.80;;;21.60;99.70;;;;;;4863870;29;20041;-88
2023/07/01 12:41:55;;;;;;;2.22;2.10;;;21.60;99.80;;;;;;4865071;29;20085;-86
2023/07/01 12:44:21;;;;;;;2.40;2.17;;;21.70;99.90;;;;;;4847995;29;20030;-86
2023/07/01 12:46:46;;;;;;;2.92;2.63;;;21.70;99.90;;;;;;4864871;29;20498;-86
2023/07/01 12:49:13;;;;;;;2.92;2.60;;;21.70;99.90;;;;;;4863909;29;20038;-87
2023/07/01 12:51:41;;;;;;;3.65;2.50;;;21.80;99.90;;;;;;4848617;29;20025;-88
2023/07/01 12:54:06;;;;;;;8.20;3.35;;;21.80;99.90;;;;;;4863464;29;20061;-88